To NAV CANADA Home Page Login to a new session Search on AWWS site Feedback and Comments Disclaimer Vers la page française équivalente Tips FAQ What's new on the site To the Forecasts and Observations / NOTAM section To "File a Flight Plan" website Publications and other links Update of the User's profile FIC Telephone Numbers My Weather Data Folder Route Weather Data Regional Weather Data Local Weather Data To the Forecasts and Observations / NOTAM section
Request Generated 05/05/2016 at 06:44:46 UTC . Weather information available at that time is displayed.

METAR/TAF

CLYDE RIVER/NU    (show WxCam)

METAR CYCY 050600Z AUTO 29008KT 9SM OVC017 M04/M05 A3013 RMK SLP209=
SPECI CYCY 050543Z AUTO 30007KT 9SM OVC017 M04/M05 A3013 RMK SLP208=
SPECI CYCY 050537Z AUTO 31008KT 6SM -SN OVC017 M04/M05 A3013 RMK
SLP208=
SPECI CYCY 050525Z AUTO 31008KT 5SM -SN OVC015 M04/M05 A3013 RMK
SLP208=
METAR CYCY 050500Z AUTO 33009KT 9SM -SN OVC015 M04/M05 A3013 RMK
SLP208=
SPECI CYCY 050454Z AUTO 32007KT 9SM -SN OVC015 M04/M05 A3013 RMK
SLP208=
SPECI CYCY 050450Z AUTO 32009KT 9SM OVC015 M04/M05 A3013 RMK SLP208=
SPECI CYCY 050438Z AUTO 32010KT 9SM -SN OVC015 M04/M05 A3013 RMK
SLP207=
METAR CYCY 050400Z AUTO 33008KT 9SM OVC015 M04/M05 A3013 RMK SLP208=

TAF CYCY 050638Z 0507/0519 30010KT P6SM OVC015 TEMPO 0507/0519 5SM
-SN OVC008
RMK FCST BASED ON AUTO OBS. NXT FCST BY 051300Z=
Your time UTC time
Weather data provided by Environment Canada and NAV CANADA